sensor_id;sensor_type;location;lat;lon;timestamp;P1;durP1;ratioP1;P2;durP2;ratioP2
1467;SDS011;727;48.892;9.544;2023-04-25T00:00:37;6.68;;;3.75;;
1467;SDS011;727;48.892;9.544;2023-04-25T00:03:05;4.55;;;4.15;;
1467;SDS011;727;48.892;9.544;2023-04-25T00:05:33;7.72;;;4.03;;
1467;SDS011;727;48.892;9.544;2023-04-25T00:08:02;4.05;;;3.75;;
1467;SDS011;727;48.892;9.544;2023-04-25T00:10:29;4.53;;;3.90;;
1467;SDS011;727;48.892;9.544;2023-04-25T00:12:57;4.65;;;4.30;;
1467;SDS011;727;48.892;9.544;2023-04-25T00:15:23;4.60;;;4.03;;
1467;SDS011;727;48.892;9.544;2023-04-25T00:17:51;4.30;;;3.90;;
1467;SDS011;727;48.892;9.544;2023-04-25T00:20:19;3.50;;;3.20;;
1467;SDS011;727;48.892;9.544;2023-04-25T00:22:46;5.68;;;3.92;;
1467;SDS011;727;48.892;9.544;2023-04-25T00:25:13;5.35;;;3.75;;
1467;SDS011;727;48.892;9.544;2023-04-25T00:27:40;4.25;;;3.85;;
1467;SDS011;727;48.892;9.544;2023-04-25T00:30:07;4.88;;;4.05;;
1467;SDS011;727;48.892;9.544;2023-04-25T00:32:36;3.83;;;3.53;;
1467;SDS011;727;48.892;9.544;2023-04-25T00:35:04;4.10;;;3.70;;
1467;SDS011;727;48.892;9.544;2023-04-25T00:37:32;3.85;;;3.55;;
1467;SDS011;727;48.892;9.544;2023-04-25T00:39:59;5.72;;;3.20;;
1467;SDS011;727;48.892;9.544;2023-04-25T00:42:26;3.65;;;3.22;;
1467;SDS011;727;48.892;9.544;2023-04-25T00:44:53;3.97;;;3.65;;
1467;SDS011;727;48.892;9.544;2023-04-25T00:47:21;4.93;;;3.55;;
1467;SDS011;727;48.892;9.544;2023-04-25T00:49:48;4.18;;;3.65;;
1467;SDS011;727;48.892;9.544;2023-04-25T00:52:15;3.92;;;3.63;;
1467;SDS011;727;48.892;9.544;2023-04-25T00:54:43;4.95;;;4.15;;
1467;SDS011;727;48.892;9.544;2023-04-25T00:57:10;4.43;;;4.05;;
1467;SDS011;727;48.892;9.544;2023-04-25T00:59:37;4.00;;;3.70;;
1467;SDS011;727;48.892;9.544;2023-04-25T01:02:04;4.00;;;3.58;;
1467;SDS011;727;48.892;9.544;2023-04-25T01:04:32;5.30;;;4.80;;
1467;SDS011;727;48.892;9.544;2023-04-25T01:06:59;4.60;;;4.18;;
1467;SDS011;727;48.892;9.544;2023-04-25T01:09:27;3.95;;;3.65;;
1467;SDS011;727;48.892;9.544;2023-04-25T01:11:58;3.90;;;3.60;;
1467;SDS011;727;48.892;9.544;2023-04-25T01:14:26;3.95;;;3.60;;
1467;SDS011;727;48.892;9.544;2023-04-25T01:16:53;3.33;;;3.10;;
1467;SDS011;727;48.892;9.544;2023-04-25T01:19:20;3.90;;;3.60;;
1467;SDS011;727;48.892;9.544;2023-04-25T01:21:48;3.92;;;3.63;;
1467;SDS011;727;48.892;9.544;2023-04-25T01:24:16;3.65;;;3.35;;
1467;SDS011;727;48.892;9.544;2023-04-25T01:26:43;5.43;;;4.10;;
1467;SDS011;727;48.892;9.544;2023-04-25T01:29:14;7.95;;;4.10;;
1467;SDS011;727;48.892;9.544;2023-04-25T01:31:41;6.57;;;3.60;;
1467;SDS011;727;48.892;9.544;2023-04-25T01:34:09;4.57;;;3.50;;
1467;SDS011;727;48.892;9.544;2023-04-25T01:36:35;4.30;;;3.92;;
1467;SDS011;727;48.892;9.544;2023-04-25T01:39:04;4.05;;;3.33;;
1467;SDS011;727;48.892;9.544;2023-04-25T01:41:31;3.72;;;3.42;;
1467;SDS011;727;48.892;9.544;2023-04-25T01:43:59;4.30;;;3.90;;
1467;SDS011;727;48.892;9.544;2023-04-25T01:46:26;3.63;;;3.35;;
1467;SDS011;727;48.892;9.544;2023-04-25T01:48:53;3.60;;;3.30;;
1467;SDS011;727;48.892;9.544;2023-04-25T01:51:20;3.47;;;3.17;;
1467;SDS011;727;48.892;9.544;2023-04-25T01:53:46;3.42;;;3.05;;
1467;SDS011;727;48.892;9.544;2023-04-25T01:56:15;3.45;;;2.97;;
1467;SDS011;727;48.892;9.544;2023-04-25T01:58:41;2.95;;;2.75;;
1467;SDS011;727;48.892;9.544;2023-04-25T02:01:08;3.70;;;3.38;;
1467;SDS011;727;48.892;9.544;2023-04-25T02:03:35;4.75;;;3.90;;
1467;SDS011;727;48.892;9.544;2023-04-25T02:06:02;3.85;;;3.55;;
1467;SDS011;727;48.892;9.544;2023-04-25T02:08:29;3.95;;;3.65;;
1467;SDS011;727;48.892;9.544;2023-04-25T02:10:56;3.70;;;3.40;;
1467;SDS011;727;48.892;9.544;2023-04-25T02:13:24;3.45;;;3.15;;
1467;SDS011;727;48.892;9.544;2023-04-25T02:15:51;4.53;;;3.60;;
1467;SDS011;727;48.892;9.544;2023-04-25T02:18:18;5.15;;;3.70;;
1467;SDS011;727;48.892;9.544;2023-04-25T02:20:46;3.35;;;3.10;;
1467;SDS011;727;48.892;9.544;2023-04-25T02:23:13;3.35;;;3.15;;
1467;SDS011;727;48.892;9.544;2023-04-25T02:25:40;3.58;;;3.28;;
1467;SDS011;727;48.892;9.544;2023-04-25T02:28:07;4.20;;;3.80;;
1467;SDS011;727;48.892;9.544;2023-04-25T02:30:35;3.63;;;3.33;;
1467;SDS011;727;48.892;9.544;2023-04-25T02:33:02;4.88;;;3.70;;
1467;SDS011;727;48.892;9.544;2023-04-25T02:35:29;3.97;;;3.67;;
1467;SDS011;727;48.892;9.544;2023-04-25T02:37:56;3.75;;;3.25;;
1467;SDS011;727;48.892;9.544;2023-04-25T02:40:22;3.58;;;3.28;;
1467;SDS011;727;48.892;9.544;2023-04-25T02:42:51;3.97;;;3.67;;
1467;SDS011;727;48.892;9.544;2023-04-25T02:45:18;6.80;;;4.00;;
1467;SDS011;727;48.892;9.544;2023-04-25T02:47:46;7.70;;;3.70;;
1467;SDS011;727;48.892;9.544;2023-04-25T02:50:13;3.55;;;3.25;;
1467;SDS011;727;48.892;9.544;2023-04-25T02:52:40;3.65;;;3.35;;
1467;SDS011;727;48.892;9.544;2023-04-25T02:55:07;4.03;;;3.65;;
1467;SDS011;727;48.892;9.544;2023-04-25T02:57:35;5.07;;;3.88;;
1467;SDS011;727;48.892;9.544;2023-04-25T03:00:02;4.30;;;3.88;;
1467;SDS011;727;48.892;9.544;2023-04-25T03:02:30;4.15;;;3.80;;
1467;SDS011;727;48.892;9.544;2023-04-25T03:05:00;4.10;;;3.80;;
1467;SDS011;727;48.892;9.544;2023-04-25T03:07:28;3.80;;;3.45;;
1467;SDS011;727;48.892;9.544;2023-04-25T03:09:54;4.43;;;4.03;;
1467;SDS011;727;48.892;9.544;2023-04-25T03:12:21;5.07;;;3.83;;
1467;SDS011;727;48.892;9.544;2023-04-25T03:14:48;3.90;;;3.50;;
1467;SDS011;727;48.892;9.544;2023-04-25T03:17:15;4.30;;;3.90;;
1467;SDS011;727;48.892;9.544;2023-04-25T03:19:42;5.00;;;4.50;;
1467;SDS011;727;48.892;9.544;2023-04-25T03:22:10;3.55;;;3.25;;
1467;SDS011;727;48.892;9.544;2023-04-25T03:24:37;3.53;;;3.22;;
1467;SDS011;727;48.892;9.544;2023-04-25T03:27:04;7.15;;;3.88;;
1467;SDS011;727;48.892;9.544;2023-04-25T03:29:31;4.38;;;3.90;;
1467;SDS011;727;48.892;9.544;2023-04-25T03:31:58;6.10;;;3.85;;
1467;SDS011;727;48.892;9.544;2023-04-25T03:34:24;4.03;;;3.70;;
1467;SDS011;727;48.892;9.544;2023-04-25T03:36:52;4.50;;;4.10;;
1467;SDS011;727;48.892;9.544;2023-04-25T03:39:20;3.88;;;3.58;;
1467;SDS011;727;48.892;9.544;2023-04-25T03:41:47;4.93;;;4.38;;
1467;SDS011;727;48.892;9.544;2023-04-25T03:44:13;4.57;;;4.10;;
1467;SDS011;727;48.892;9.544;2023-04-25T03:46:40;3.90;;;3.63;;
1467;SDS011;727;48.892;9.544;2023-04-25T03:49:07;8.02;;;4.45;;
1467;SDS011;727;48.892;9.544;2023-04-25T03:51:34;4.72;;;4.32;;
1467;SDS011;727;48.892;9.544;2023-04-25T03:54:01;6.03;;;5.43;;
1467;SDS011;727;48.892;9.544;2023-04-25T03:56:29;5.45;;;4.50;;
1467;SDS011;727;48.892;9.544;2023-04-25T03:58:56;5.40;;;4.90;;
1467;SDS011;727;48.892;9.544;2023-04-25T04:01:23;7.68;;;5.35;;
1467;SDS011;727;48.892;9.544;2023-04-25T04:03:50;5.38;;;4.82;;
1467;SDS011;727;48.892;9.544;2023-04-25T04:06:16;7.82;;;4.95;;
1467;SDS011;727;48.892;9.544;2023-04-25T04:08:45;8.15;;;5.05;;
1467;SDS011;727;48.892;9.544;2023-04-25T04:11:12;5.82;;;5.28;;
1467;SDS011;727;48.892;9.544;2023-04-25T04:13:40;7.07;;;6.47;;
1467;SDS011;727;48.892;9.544;2023-04-25T04:16:07;5.40;;;5.00;;
1467;SDS011;727;48.892;9.544;2023-04-25T04:18:34;8.00;;;5.85;;
1467;SDS011;727;48.892;9.544;2023-04-25T04:21:01;5.10;;;4.65;;
1467;SDS011;727;48.892;9.544;2023-04-25T04:23:28;7.13;;;5.88;;
1467;SDS011;727;48.892;9.544;2023-04-25T04:25:54;5.93;;;5.28;;
1467;SDS011;727;48.892;9.544;2023-04-25T04:28:22;8.32;;;6.28;;
1467;SDS011;727;48.892;9.544;2023-04-25T04:30:50;6.60;;;6.05;;
1467;SDS011;727;48.892;9.544;2023-04-25T04:33:17;6.50;;;5.75;;
1467;SDS011;727;48.892;9.544;2023-04-25T04:35:45;7.00;;;6.35;;
1467;SDS011;727;48.892;9.544;2023-04-25T04:38:13;8.73;;;7.00;;
1467;SDS011;727;48.892;9.544;2023-04-25T04:40:41;6.60;;;6.00;;
1467;SDS011;727;48.892;9.544;2023-04-25T04:43:08;6.80;;;6.10;;
1467;SDS011;727;48.892;9.544;2023-04-25T04:45:35;6.95;;;6.35;;
1467;SDS011;727;48.892;9.544;2023-04-25T04:48:05;7.15;;;6.38;;
1467;SDS011;727;48.892;9.544;2023-04-25T04:50:32;9.00;;;6.07;;
1467;SDS011;727;48.892;9.544;2023-04-25T04:52:59;6.05;;;5.40;;
1467;SDS011;727;48.892;9.544;2023-04-25T04:55:25;10.10;;;6.85;;
1467;SDS011;727;48.892;9.544;2023-04-25T04:57:52;7.57;;;6.82;;
1467;SDS011;727;48.892;9.544;2023-04-25T05:00:19;10.75;;;6.72;;
1467;SDS011;727;48.892;9.544;2023-04-25T05:02:46;11.55;;;6.38;;
1467;SDS011;727;48.892;9.544;2023-04-25T05:05:15;6.55;;;5.45;;
1467;SDS011;727;48.892;9.544;2023-04-25T05:07:41;6.70;;;6.10;;
1467;SDS011;727;48.892;9.544;2023-04-25T05:10:08;7.70;;;5.15;;
1467;SDS011;727;48.892;9.544;2023-04-25T05:12:36;5.78;;;4.95;;
1467;SDS011;727;48.892;9.544;2023-04-25T05:15:02;11.20;;;5.30;;
1467;SDS011;727;48.892;9.544;2023-04-25T05:17:29;14.68;;;11.25;;
1467;SDS011;727;48.892;9.544;2023-04-25T05:19:57;9.50;;;7.75;;
1467;SDS011;727;48.892;9.544;2023-04-25T05:22:25;7.28;;;6.38;;
1467;SDS011;727;48.892;9.544;2023-04-25T05:24:52;5.32;;;4.88;;
1467;SDS011;727;48.892;9.544;2023-04-25T05:27:19;9.48;;;5.82;;
1467;SDS011;727;48.892;9.544;2023-04-25T05:29:46;8.38;;;6.53;;
1467;SDS011;727;48.892;9.544;2023-04-25T05:32:13;6.85;;;6.15;;
1467;SDS011;727;48.892;9.544;2023-04-25T05:34:39;6.03;;;5.18;;
1467;SDS011;727;48.892;9.544;2023-04-25T05:37:06;5.82;;;5.25;;
1467;SDS011;727;48.892;9.544;2023-04-25T05:39:34;5.47;;;4.97;;
1467;SDS011;727;48.892;9.544;2023-04-25T05:42:01;5.00;;;4.60;;
1467;SDS011;727;48.892;9.544;2023-04-25T05:44:28;6.70;;;4.88;;
1467;SDS011;727;48.892;9.544;2023-04-25T05:46:56;5.50;;;4.50;;
1467;SDS011;727;48.892;9.544;2023-04-25T05:49:22;5.40;;;4.90;;
1467;SDS011;727;48.892;9.544;2023-04-25T05:51:49;6.50;;;5.90;;
1467;SDS011;727;48.892;9.544;2023-04-25T05:54:16;5.50;;;5.00;;
1467;SDS011;727;48.892;9.544;2023-04-25T05:56:44;6.13;;;5.53;;
1467;SDS011;727;48.892;9.544;2023-04-25T05:59:10;6.28;;;5.55;;
1467;SDS011;727;48.892;9.544;2023-04-25T06:01:37;6.38;;;5.80;;
1467;SDS011;727;48.892;9.544;2023-04-25T06:04:05;6.93;;;6.22;;
1467;SDS011;727;48.892;9.544;2023-04-25T06:06:31;15.85;;;6.55;;
1467;SDS011;727;48.892;9.544;2023-04-25T06:08:58;10.40;;;6.38;;
1467;SDS011;727;48.892;9.544;2023-04-25T06:11:25;7.55;;;6.30;;
1467;SDS011;727;48.892;9.544;2023-04-25T06:13:53;9.00;;;6.85;;
1467;SDS011;727;48.892;9.544;2023-04-25T06:16:20;7.10;;;6.35;;
1467;SDS011;727;48.892;9.544;2023-04-25T06:18:46;7.53;;;5.93;;
1467;SDS011;727;48.892;9.544;2023-04-25T06:21:13;7.93;;;7.13;;
1467;SDS011;727;48.892;9.544;2023-04-25T06:23:40;7.53;;;6.72;;
1467;SDS011;727;48.892;9.544;2023-04-25T06:26:07;7.63;;;6.82;;
1467;SDS011;727;48.892;9.544;2023-04-25T06:28:33;6.95;;;6.30;;
1467;SDS011;727;48.892;9.544;2023-04-25T06:31:01;10.63;;;6.43;;
1467;SDS011;727;48.892;9.544;2023-04-25T06:33:28;6.53;;;6.00;;
1467;SDS011;727;48.892;9.544;2023-04-25T06:35:55;10.52;;;6.88;;
1467;SDS011;727;48.892;9.544;2023-04-25T06:38:22;8.48;;;7.70;;
1467;SDS011;727;48.892;9.544;2023-04-25T06:40:48;8.45;;;7.60;;
1467;SDS011;727;48.892;9.544;2023-04-25T06:43:16;9.00;;;8.10;;
1467;SDS011;727;48.892;9.544;2023-04-25T06:45:42;9.23;;;7.10;;
1467;SDS011;727;48.892;9.544;2023-04-25T06:48:11;29.58;;;19.17;;
1467;SDS011;727;48.892;9.544;2023-04-25T06:50:38;15.48;;;10.57;;
1467;SDS011;727;48.892;9.544;2023-04-25T06:53:05;10.80;;;9.32;;
1467;SDS011;727;48.892;9.544;2023-04-25T06:55:33;6.88;;;6.22;;
1467;SDS011;727;48.892;9.544;2023-04-25T06:58:00;7.90;;;7.10;;
1467;SDS011;727;48.892;9.544;2023-04-25T07:00:28;14.30;;;11.93;;
1467;SDS011;727;48.892;9.544;2023-04-25T07:02:55;9.93;;;6.90;;
1467;SDS011;727;48.892;9.544;2023-04-25T07:05:23;6.45;;;5.72;;
1467;SDS011;727;48.892;9.544;2023-04-25T07:07:50;8.05;;;7.30;;
1467;SDS011;727;48.892;9.544;2023-04-25T07:10:16;5.60;;;5.10;;
1467;SDS011;727;48.892;9.544;2023-04-25T07:12:43;5.68;;;5.18;;
1467;SDS011;727;48.892;9.544;2023-04-25T07:15:10;4.82;;;4.30;;
1467;SDS011;727;48.892;9.544;2023-04-25T07:17:37;4.50;;;4.10;;
1467;SDS011;727;48.892;9.544;2023-04-25T07:20:04;5.53;;;5.13;;
1467;SDS011;727;48.892;9.544;2023-04-25T07:22:35;4.63;;;4.23;;
1467;SDS011;727;48.892;9.544;2023-04-25T07:25:02;4.95;;;4.55;;
1467;SDS011;727;48.892;9.544;2023-04-25T07:27:29;4.90;;;4.47;;
1467;SDS011;727;48.892;9.544;2023-04-25T07:29:56;5.05;;;4.65;;
1467;SDS011;727;48.892;9.544;2023-04-25T07:32:25;5.50;;;5.00;;
1467;SDS011;727;48.892;9.544;2023-04-25T07:34:54;6.38;;;4.85;;
1467;SDS011;727;48.892;9.544;2023-04-25T07:37:21;4.60;;;4.22;;
1467;SDS011;727;48.892;9.544;2023-04-25T07:39:49;5.43;;;4.95;;
1467;SDS011;727;48.892;9.544;2023-04-25T07:42:15;4.72;;;4.20;;
1467;SDS011;727;48.892;9.544;2023-04-25T07:44:42;5.78;;;5.05;;
1467;SDS011;727;48.892;9.544;2023-04-25T07:47:09;4.53;;;4.13;;
1467;SDS011;727;48.892;9.544;2023-04-25T07:49:36;5.47;;;4.30;;
1467;SDS011;727;48.892;9.544;2023-04-25T07:52:04;5.00;;;4.60;;
1467;SDS011;727;48.892;9.544;2023-04-25T07:54:31;7.05;;;5.10;;
1467;SDS011;727;48.892;9.544;2023-04-25T07:57:00;5.82;;;5.28;;
1467;SDS011;727;48.892;9.544;2023-04-25T07:59:27;7.82;;;4.78;;
1467;SDS011;727;48.892;9.544;2023-04-25T08:01:54;4.38;;;3.97;;
1467;SDS011;727;48.892;9.544;2023-04-25T08:04:22;4.85;;;4.45;;
1467;SDS011;727;48.892;9.544;2023-04-25T08:06:49;4.70;;;4.30;;
1467;SDS011;727;48.892;9.544;2023-04-25T08:09:16;4.73;;;4.33;;
1467;SDS011;727;48.892;9.544;2023-04-25T08:11:42;5.00;;;4.60;;
1467;SDS011;727;48.892;9.544;2023-04-25T08:14:11;4.93;;;4.50;;
1467;SDS011;727;48.892;9.544;2023-04-25T08:16:38;10.37;;;6.63;;
1467;SDS011;727;48.892;9.544;2023-04-25T08:19:04;4.50;;;4.10;;
1467;SDS011;727;48.892;9.544;2023-04-25T08:21:31;4.40;;;4.00;;
1467;SDS011;727;48.892;9.544;2023-04-25T08:23:58;6.07;;;5.20;;
1467;SDS011;727;48.892;9.544;2023-04-25T08:26:25;6.57;;;5.07;;
1467;SDS011;727;48.892;9.544;2023-04-25T08:28:52;8.00;;;6.22;;
1467;SDS011;727;48.892;9.544;2023-04-25T08:31:20;7.32;;;6.55;;
1467;SDS011;727;48.892;9.544;2023-04-25T08:33:47;6.80;;;6.20;;
1467;SDS011;727;48.892;9.544;2023-04-25T08:36:16;6.20;;;4.47;;
1467;SDS011;727;48.892;9.544;2023-04-25T08:38:43;6.07;;;5.57;;
1467;SDS011;727;48.892;9.544;2023-04-25T08:41:10;6.75;;;6.15;;
1467;SDS011;727;48.892;9.544;2023-04-25T08:43:37;5.45;;;4.93;;
1467;SDS011;727;48.892;9.544;2023-04-25T08:46:08;5.90;;;4.78;;
1467;SDS011;727;48.892;9.544;2023-04-25T08:48:38;6.60;;;5.70;;
1467;SDS011;727;48.892;9.544;2023-04-25T08:51:08;5.80;;;5.30;;
1467;SDS011;727;48.892;9.544;2023-04-25T08:53:41;7.30;;;6.70;;
1467;SDS011;727;48.892;9.544;2023-04-25T08:56:09;6.47;;;5.85;;
1467;SDS011;727;48.892;9.544;2023-04-25T08:58:39;12.23;;;8.02;;
1467;SDS011;727;48.892;9.544;2023-04-25T09:01:06;5.80;;;5.30;;
1467;SDS011;727;48.892;9.544;2023-04-25T09:03:33;6.65;;;6.00;;
1467;SDS011;727;48.892;9.544;2023-04-25T09:06:02;8.18;;;7.32;;
1467;SDS011;727;48.892;9.544;2023-04-25T09:08:30;7.03;;;5.85;;
1467;SDS011;727;48.892;9.544;2023-04-25T09:10:56;6.97;;;5.93;;
1467;SDS011;727;48.892;9.544;2023-04-25T09:13:24;6.35;;;5.72;;
1467;SDS011;727;48.892;9.544;2023-04-25T09:15:52;5.93;;;5.30;;
1467;SDS011;727;48.892;9.544;2023-04-25T09:18:23;8.57;;;7.80;;
1467;SDS011;727;48.892;9.544;2023-04-25T09:20:51;10.13;;;9.13;;
1467;SDS011;727;48.892;9.544;2023-04-25T09:23:20;9.57;;;8.45;;
1467;SDS011;727;48.892;9.544;2023-04-25T09:25:48;6.27;;;5.67;;
1467;SDS011;727;48.892;9.544;2023-04-25T09:28:16;6.30;;;5.20;;
1467;SDS011;727;48.892;9.544;2023-04-25T09:30:48;6.28;;;5.60;;
1467;SDS011;727;48.892;9.544;2023-04-25T09:33:15;6.13;;;5.15;;
1467;SDS011;727;48.892;9.544;2023-04-25T09:35:42;5.32;;;4.82;;
1467;SDS011;727;48.892;9.544;2023-04-25T09:38:10;6.45;;;5.65;;
1467;SDS011;727;48.892;9.544;2023-04-25T09:40:43;7.10;;;6.40;;
1467;SDS011;727;48.892;9.544;2023-04-25T09:43:18;5.43;;;5.03;;
1467;SDS011;727;48.892;9.544;2023-04-25T09:45:46;7.30;;;6.30;;
1467;SDS011;727;48.892;9.544;2023-04-25T09:48:16;6.00;;;5.50;;
1467;SDS011;727;48.892;9.544;2023-04-25T09:50:45;8.65;;;7.80;;
1467;SDS011;727;48.892;9.544;2023-04-25T09:53:11;7.38;;;6.78;;
1467;SDS011;727;48.892;9.544;2023-04-25T09:55:38;10.85;;;6.90;;
1467;SDS011;727;48.892;9.544;2023-04-25T09:58:08;6.83;;;6.23;;
1467;SDS011;727;48.892;9.544;2023-04-25T10:00:37;7.70;;;6.90;;
1467;SDS011;727;48.892;9.544;2023-04-25T10:03:04;10.83;;;6.27;;
1467;SDS011;727;48.892;9.544;2023-04-25T10:05:32;7.03;;;6.40;;
1467;SDS011;727;48.892;9.544;2023-04-25T10:08:03;7.03;;;6.17;;
1467;SDS011;727;48.892;9.544;2023-04-25T10:10:30;7.10;;;6.40;;
1467;SDS011;727;48.892;9.544;2023-04-25T10:13:02;6.43;;;5.57;;
1467;SDS011;727;48.892;9.544;2023-04-25T10:15:31;7.07;;;6.47;;
1467;SDS011;727;48.892;9.544;2023-04-25T10:18:00;7.90;;;6.90;;
1467;SDS011;727;48.892;9.544;2023-04-25T10:20:27;7.63;;;6.93;;
1467;SDS011;727;48.892;9.544;2023-04-25T10:22:55;8.50;;;7.25;;
1467;SDS011;727;48.892;9.544;2023-04-25T10:25:29;7.30;;;6.68;;
1467;SDS011;727;48.892;9.544;2023-04-25T10:27:56;8.80;;;7.90;;
1467;SDS011;727;48.892;9.544;2023-04-25T10:30:25;8.35;;;7.57;;
1467;SDS011;727;48.892;9.544;2023-04-25T10:32:53;7.70;;;6.95;;
1467;SDS011;727;48.892;9.544;2023-04-25T10:35:24;8.37;;;7.50;;
1467;SDS011;727;48.892;9.544;2023-04-25T10:38:03;9.88;;;7.50;;
1467;SDS011;727;48.892;9.544;2023-04-25T10:40:30;9.10;;;7.60;;
1467;SDS011;727;48.892;9.544;2023-04-25T10:45:59;8.25;;;7.45;;
1467;SDS011;727;48.892;9.544;2023-04-25T10:48:27;9.45;;;8.57;;
1467;SDS011;727;48.892;9.544;2023-04-25T10:51:06;6.65;;;5.97;;
1467;SDS011;727;48.892;9.544;2023-04-25T10:53:34;7.88;;;6.45;;
1467;SDS011;727;48.892;9.544;2023-04-25T10:56:05;5.47;;;4.40;;
1467;SDS011;727;48.892;9.544;2023-04-25T10:58:36;5.25;;;4.85;;
1467;SDS011;727;48.892;9.544;2023-04-25T11:01:07;6.30;;;5.35;;
1467;SDS011;727;48.892;9.544;2023-04-25T11:03:39;7.40;;;4.95;;
1467;SDS011;727;48.892;9.544;2023-04-25T11:06:09;9.73;;;5.82;;
1467;SDS011;727;48.892;9.544;2023-04-25T11:08:47;4.82;;;4.38;;
1467;SDS011;727;48.892;9.544;2023-04-25T11:11:15;5.47;;;4.97;;
1467;SDS011;727;48.892;9.544;2023-04-25T11:13:43;6.60;;;5.90;;
1467;SDS011;727;48.892;9.544;2023-04-25T11:16:10;6.68;;;5.63;;
1467;SDS011;727;48.892;9.544;2023-04-25T11:18:40;6.38;;;5.78;;
1467;SDS011;727;48.892;9.544;2023-04-25T11:21:07;6.05;;;5.45;;
1467;SDS011;727;48.892;9.544;2023-04-25T11:23:34;6.20;;;5.15;;
1467;SDS011;727;48.892;9.544;2023-04-25T11:26:01;7.18;;;5.75;;
1467;SDS011;727;48.892;9.544;2023-04-25T11:28:29;5.97;;;5.38;;
1467;SDS011;727;48.892;9.544;2023-04-25T11:30:56;8.00;;;6.82;;
1467;SDS011;727;48.892;9.544;2023-04-25T11:33:24;6.72;;;6.10;;
1467;SDS011;727;48.892;9.544;2023-04-25T11:35:54;7.05;;;6.45;;
1467;SDS011;727;48.892;9.544;2023-04-25T11:38:22;7.88;;;7.10;;
1467;SDS011;727;48.892;9.544;2023-04-25T11:40:51;7.32;;;6.63;;
1467;SDS011;727;48.892;9.544;2023-04-25T11:43:19;7.00;;;6.35;;
1467;SDS011;727;48.892;9.544;2023-04-25T11:45:47;8.38;;;6.53;;
1467;SDS011;727;48.892;9.544;2023-04-25T11:48:15;7.50;;;6.80;;
1467;SDS011;727;48.892;9.544;2023-04-25T11:50:42;8.20;;;7.40;;
1467;SDS011;727;48.892;9.544;2023-04-25T11:53:11;11.82;;;10.43;;
1467;SDS011;727;48.892;9.544;2023-04-25T11:55:38;10.55;;;8.35;;
1467;SDS011;727;48.892;9.544;2023-04-25T11:58:05;7.47;;;6.78;;
1467;SDS011;727;48.892;9.544;2023-04-25T12:00:33;8.68;;;7.82;;
1467;SDS011;727;48.892;9.544;2023-04-25T12:03:01;37.47;;;25.95;;
1467;SDS011;727;48.892;9.544;2023-04-25T12:05:29;18.85;;;13.88;;
1467;SDS011;727;48.892;9.544;2023-04-25T12:07:58;6.47;;;5.88;;
1467;SDS011;727;48.892;9.544;2023-04-25T12:10:38;7.15;;;6.45;;
1467;SDS011;727;48.892;9.544;2023-04-25T12:13:22;6.50;;;5.50;;
1467;SDS011;727;48.892;9.544;2023-04-25T12:15:51;7.72;;;6.20;;
1467;SDS011;727;48.892;9.544;2023-04-25T12:18:22;6.50;;;5.90;;
1467;SDS011;727;48.892;9.544;2023-04-25T12:20:51;7.45;;;6.63;;
1467;SDS011;727;48.892;9.544;2023-04-25T12:23:24;6.80;;;6.10;;
1467;SDS011;727;48.892;9.544;2023-04-25T12:25:54;6.00;;;5.43;;
1467;SDS011;727;48.892;9.544;2023-04-25T12:28:21;5.53;;;5.03;;
1467;SDS011;727;48.892;9.544;2023-04-25T12:30:53;6.40;;;5.47;;
1467;SDS011;727;48.892;9.544;2023-04-25T12:33:24;5.78;;;5.30;;
1467;SDS011;727;48.892;9.544;2023-04-25T12:35:52;7.83;;;7.00;;
1467;SDS011;727;48.892;9.544;2023-04-25T12:38:22;8.23;;;7.03;;
1467;SDS011;727;48.892;9.544;2023-04-25T12:40:50;7.83;;;7.13;;
1467;SDS011;727;48.892;9.544;2023-04-25T12:43:18;8.80;;;6.97;;
1467;SDS011;727;48.892;9.544;2023-04-25T12:45:47;8.40;;;7.60;;
1467;SDS011;727;48.892;9.544;2023-04-25T12:48:15;5.97;;;5.47;;
1467;SDS011;727;48.892;9.544;2023-04-25T12:50:42;7.72;;;6.60;;
1467;SDS011;727;48.892;9.544;2023-04-25T12:53:09;7.22;;;5.90;;
1467;SDS011;727;48.892;9.544;2023-04-25T12:55:36;8.43;;;6.38;;
1467;SDS011;727;48.892;9.544;2023-04-25T12:58:03;6.68;;;6.10;;
1467;SDS011;727;48.892;9.544;2023-04-25T13:00:31;7.57;;;6.82;;
1467;SDS011;727;48.892;9.544;2023-04-25T13:02:58;7.22;;;6.63;;
1467;SDS011;727;48.892;9.544;2023-04-25T13:05:25;10.95;;;9.18;;
1467;SDS011;727;48.892;9.544;2023-04-25T13:07:51;12.25;;;7.40;;
1467;SDS011;727;48.892;9.544;2023-04-25T13:10:18;6.93;;;6.22;;
1467;SDS011;727;48.892;9.544;2023-04-25T13:12:45;7.03;;;6.32;;
1467;SDS011;727;48.892;9.544;2023-04-25T13:15:12;7.45;;;6.70;;
1467;SDS011;727;48.892;9.544;2023-04-25T13:17:41;8.98;;;7.35;;
1467;SDS011;727;48.892;9.544;2023-04-25T13:20:09;6.10;;;5.50;;
1467;SDS011;727;48.892;9.544;2023-04-25T13:22:39;6.10;;;5.38;;
1467;SDS011;727;48.892;9.544;2023-04-25T13:25:06;5.85;;;5.25;;
1467;SDS011;727;48.892;9.544;2023-04-25T13:27:34;6.70;;;6.07;;
1467;SDS011;727;48.892;9.544;2023-04-25T13:30:02;6.50;;;5.90;;
1467;SDS011;727;48.892;9.544;2023-04-25T13:32:32;7.30;;;6.70;;
1467;SDS011;727;48.892;9.544;2023-04-25T13:35:02;7.75;;;6.88;;
1467;SDS011;727;48.892;9.544;2023-04-25T13:37:29;7.57;;;6.80;;
1467;SDS011;727;48.892;9.544;2023-04-25T13:39:58;7.78;;;6.95;;
1467;SDS011;727;48.892;9.544;2023-04-25T13:42:25;9.43;;;5.88;;
1467;SDS011;727;48.892;9.544;2023-04-25T13:44:52;6.60;;;5.88;;
1467;SDS011;727;48.892;9.544;2023-04-25T13:47:18;11.75;;;7.43;;
1467;SDS011;727;48.892;9.544;2023-04-25T13:49:45;7.82;;;7.07;;
1467;SDS011;727;48.892;9.544;2023-04-25T13:52:13;7.82;;;7.13;;
1467;SDS011;727;48.892;9.544;2023-04-25T13:54:40;8.70;;;6.65;;
1467;SDS011;727;48.892;9.544;2023-04-25T13:57:07;9.63;;;8.00;;
1467;SDS011;727;48.892;9.544;2023-04-25T13:59:33;10.40;;;7.40;;
1467;SDS011;727;48.892;9.544;2023-04-25T14:02:00;10.20;;;7.28;;
1467;SDS011;727;48.892;9.544;2023-04-25T14:04:27;7.97;;;7.18;;
1467;SDS011;727;48.892;9.544;2023-04-25T14:06:54;8.03;;;7.27;;
1467;SDS011;727;48.892;9.544;2023-04-25T14:09:23;11.70;;;7.75;;
1467;SDS011;727;48.892;9.544;2023-04-25T14:11:50;12.53;;;8.20;;
1467;SDS011;727;48.892;9.544;2023-04-25T14:14:17;8.32;;;7.53;;
1467;SDS011;727;48.892;9.544;2023-04-25T14:16:44;12.15;;;8.73;;
1467;SDS011;727;48.892;9.544;2023-04-25T14:19:13;9.90;;;8.85;;
1467;SDS011;727;48.892;9.544;2023-04-25T14:21:40;13.70;;;9.00;;
1467;SDS011;727;48.892;9.544;2023-04-25T14:24:07;9.45;;;8.52;;
1467;SDS011;727;48.892;9.544;2023-04-25T14:26:37;14.00;;;9.60;;
1467;SDS011;727;48.892;9.544;2023-04-25T14:29:04;16.73;;;10.15;;
1467;SDS011;727;48.892;9.544;2023-04-25T14:31:31;11.98;;;9.07;;
1467;SDS011;727;48.892;9.544;2023-04-25T14:33:58;13.07;;;9.65;;
1467;SDS011;727;48.892;9.544;2023-04-25T14:36:25;9.70;;;8.13;;
1467;SDS011;727;48.892;9.544;2023-04-25T14:38:52;13.13;;;10.43;;
1467;SDS011;727;48.892;9.544;2023-04-25T14:41:19;10.32;;;9.23;;
1467;SDS011;727;48.892;9.544;2023-04-25T14:43:47;11.27;;;7.93;;
1467;SDS011;727;48.892;9.544;2023-04-25T14:46:14;9.75;;;8.73;;
1467;SDS011;727;48.892;9.544;2023-04-25T14:48:41;9.60;;;8.60;;
1467;SDS011;727;48.892;9.544;2023-04-25T14:51:08;12.80;;;8.40;;
1467;SDS011;727;48.892;9.544;2023-04-25T14:53:35;13.00;;;8.90;;
1467;SDS011;727;48.892;9.544;2023-04-25T14:56:02;9.93;;;8.93;;
1467;SDS011;727;48.892;9.544;2023-04-25T14:58:29;15.75;;;10.15;;
1467;SDS011;727;48.892;9.544;2023-04-25T15:00:58;14.60;;;11.67;;
1467;SDS011;727;48.892;9.544;2023-04-25T15:03:25;11.97;;;10.70;;
1467;SDS011;727;48.892;9.544;2023-04-25T15:05:52;13.73;;;10.40;;
1467;SDS011;727;48.892;9.544;2023-04-25T15:08:20;14.00;;;11.03;;
1467;SDS011;727;48.892;9.544;2023-04-25T15:10:47;13.13;;;10.40;;
1467;SDS011;727;48.892;9.544;2023-04-25T15:13:14;12.10;;;10.40;;
1467;SDS011;727;48.892;9.544;2023-04-25T15:15:41;12.27;;;9.13;;
1467;SDS011;727;48.892;9.544;2023-04-25T15:18:09;12.20;;;10.50;;
1467;SDS011;727;48.892;9.544;2023-04-25T15:20:36;12.67;;;10.13;;
1467;SDS011;727;48.892;9.544;2023-04-25T15:23:02;11.43;;;10.23;;
1467;SDS011;727;48.892;9.544;2023-04-25T15:25:29;12.63;;;11.30;;
1467;SDS011;727;48.892;9.544;2023-04-25T15:27:56;11.47;;;10.30;;
1467;SDS011;727;48.892;9.544;2023-04-25T15:30:23;12.60;;;11.20;;
1467;SDS011;727;48.892;9.544;2023-04-25T15:32:49;12.77;;;10.03;;